Time;durP1;ratioP1;P1;durP2;ratioP2;P2;SDS_P1;SDS_P2;PMS_P1;PMS_P2;Temp;Humidity;BMP_temperature;BMP_pressure;BME280_temperature;BME280_humidity;BME280_pressure;Samples;Min_cycle;Max_cycle;Signal;HPM_P1;HPM_P2
2021/03/02 00:00:34;;;;;;;107.20;48.07;;;;;;;;;;2101035;28;20200;-58
2021/03/02 00:01:34;;;;;;;97.47;47.17;;;;;;;;;;2096903;28;20590;-55
2021/03/02 00:02:35;;;;;;;98.13;44.40;;;;;;;;;;2099323;28;20188;-55
2021/03/02 00:03:39;;;;;;;93.60;43.87;;;;;;;;;;2098780;28;20183;-53
2021/03/02 00:04:42;;;;;;;88.57;44.67;;;;;;;;;;2088745;28;20213;-54
2021/03/02 00:05:44;;;;;;;82.33;41.80;;;;;;;;;;2090880;28;21047;-55
2021/03/02 00:06:45;;;;;;;81.50;41.43;;;;;;;;;;2095401;28;20184;-56
2021/03/02 00:07:45;;;;;;;75.97;42.00;;;;;;;;;;2097534;28;20173;-52
2021/03/02 00:08:45;;;;;;;79.93;42.30;;;;;;;;;;2088005;28;20922;-56
2021/03/02 00:09:46;;;;;;;83.17;43.30;;;;;;;;;;2090792;28;20187;-50
2021/03/02 00:10:47;;;;;;;86.47;41.87;;;;;;;;;;2097652;28;20273;-54
2021/03/02 00:11:48;;;;;;;82.90;42.70;;;;;;;;;;2095486;28;20189;-56
2021/03/02 00:12:51;;;;;;;82.63;44.13;;;;;;;;;;2098396;28;20419;-56
2021/03/02 00:13:51;;;;;;;79.33;43.13;;;;;;;;;;2088949;28;20183;-57
2021/03/02 00:14:51;;;;;;;85.20;43.03;;;;;;;;;;2089787;28;20175;-57
2021/03/02 00:15:51;;;;;;;80.63;42.63;;;;;;;;;;2105981;28;20186;-55
2021/03/02 00:17:15;;;;;;;82.80;41.07;;;;;;;;;;2099513;28;20226;-56
2021/03/02 00:18:17;;;;;;;82.00;38.13;;;;;;;;;;2090239;28;20258;-57
2021/03/02 00:19:18;;;;;;;72.37;37.93;;;;;;;;;;2097626;28;20186;-54
2021/03/02 00:20:22;;;;;;;88.67;42.30;;;;;;;;;;2093192;28;20489;-59
2021/03/02 00:21:31;;;;;;;84.00;42.27;;;;;;;;;;2094529;28;20412;-55
2021/03/02 00:23:04;;;;;;;82.60;40.73;;;;;;;;;;2098889;28;20179;-56
2021/03/02 00:24:09;;;;;;;84.57;41.70;;;;;;;;;;2048299;28;20521;-53
2021/03/02 00:25:10;;;;;;;75.33;37.47;;;;;;;;;;2094772;28;20410;-56
2021/03/02 00:26:11;;;;;;;73.00;37.77;;;;;;;;;;2096062;28;20198;-54
2021/03/02 00:27:14;;;;;;;67.53;37.47;;;;;;;;;;2089832;28;20162;-57
2021/03/02 00:28:14;;;;;;;69.87;39.07;;;;;;;;;;2098431;28;20163;-59
2021/03/02 00:29:15;;;;;;;70.33;37.90;;;;;;;;;;2098477;28;20415;-54
2021/03/02 00:30:16;;;;;;;74.07;37.63;;;;;;;;;;2097117;28;20346;-58
2021/03/02 00:31:16;;;;;;;79.27;40.33;;;;;;;;;;2097457;28;20654;-59
2021/03/02 00:32:20;;;;;;;74.07;39.47;;;;;;;;;;2090353;28;20167;-56
2021/03/02 00:33:20;;;;;;;72.30;38.67;;;;;;;;;;2090324;28;20174;-57
2021/03/02 00:34:21;;;;;;;71.03;38.60;;;;;;;;;;2102842;28;20447;-56
2021/03/02 00:35:21;;;;;;;75.53;37.43;;;;;;;;;;2103597;28;20212;-55
2021/03/02 00:36:21;;;;;;;86.50;40.47;;;;;;;;;;2092891;28;20171;-57
2021/03/02 00:37:21;;;;;;;76.97;41.30;;;;;;;;;;2096598;28;20372;-56
2021/03/02 00:38:22;;;;;;;83.50;42.47;;;;;;;;;;2101756;28;20265;-58
2021/03/02 00:39:22;;;;;;;87.83;43.60;;;;;;;;;;2106750;28;20177;-58
2021/03/02 00:40:22;;;;;;;92.10;46.10;;;;;;;;;;2104491;28;20205;-53
2021/03/02 00:41:23;;;;;;;78.53;38.90;;;;;;;;;;2106243;28;20189;-56
2021/03/02 00:42:23;;;;;;;86.37;43.00;;;;;;;;;;2106230;28;20251;-55
2021/03/02 00:43:23;;;;;;;85.87;41.23;;;;;;;;;;2107213;28;20173;-61
2021/03/02 00:44:23;;;;;;;81.63;41.10;;;;;;;;;;2106162;28;20220;-57
2021/03/02 00:45:23;;;;;;;73.80;39.00;;;;;;;;;;2105142;28;20270;-57
2021/03/02 00:46:24;;;;;;;64.93;34.87;;;;;;;;;;2110624;28;20176;-58
2021/03/02 00:47:25;;;;;;;71.50;35.93;;;;;;;;;;2101475;28;20260;-60
2021/03/02 00:48:25;;;;;;;70.37;37.80;;;;;;;;;;2088982;28;20521;-60
2021/03/02 00:49:25;;;;;;;73.00;36.10;;;;;;;;;;2092407;28;20162;-57
2021/03/02 00:50:27;;;;;;;75.23;37.37;;;;;;;;;;2093216;28;20552;-55
2021/03/02 00:51:28;;;;;;;70.93;37.63;;;;;;;;;;2093464;28;20207;-55
2021/03/02 00:52:28;;;;;;;69.50;37.43;;;;;;;;;;2101707;28;20757;-57
2021/03/02 00:53:28;;;;;;;62.77;34.97;;;;;;;;;;2102136;28;20510;-56
2021/03/02 00:54:29;;;;;;;66.50;34.73;;;;;;;;;;2091990;28;20807;-56
2021/03/02 00:55:29;;;;;;;67.67;35.97;;;;;;;;;;2092505;28;20271;-54
2021/03/02 00:56:30;;;;;;;63.57;34.67;;;;;;;;;;2092246;28;20329;-60
2021/03/02 00:57:30;;;;;;;67.73;36.23;;;;;;;;;;2093737;28;20164;-60
2021/03/02 00:58:30;;;;;;;62.10;35.50;;;;;;;;;;2089848;28;20179;-59
2021/03/02 00:59:30;;;;;;;62.43;34.27;;;;;;;;;;2093882;28;20163;-59
2021/03/02 01:00:31;;;;;;;59.17;33.63;;;;;;;;;;2102079;28;20162;-56
2021/03/02 01:01:35;;;;;;;62.67;34.27;;;;;;;;;;2099579;28;20403;-54
2021/03/02 01:02:38;;;;;;;67.10;34.53;;;;;;;;;;2083932;28;20406;-58
2021/03/02 01:03:40;;;;;;;61.23;33.97;;;;;;;;;;2078481;28;20418;-59
2021/03/02 01:04:40;;;;;;;59.47;34.53;;;;;;;;;;2085741;28;20176;-60
2021/03/02 01:05:40;;;;;;;58.77;33.23;;;;;;;;;;2086027;28;20720;-58
2021/03/02 01:06:46;;;;;;;58.57;34.23;;;;;;;;;;2092047;28;20171;-57
2021/03/02 01:07:46;;;;;;;67.23;35.43;;;;;;;;;;2094069;28;20224;-59
2021/03/02 01:08:51;;;;;;;67.30;36.53;;;;;;;;;;2102139;28;20187;-57
2021/03/02 01:09:52;;;;;;;64.13;36.43;;;;;;;;;;2089698;28;20428;-54
2021/03/02 01:10:52;;;;;;;62.33;34.10;;;;;;;;;;2097805;28;20160;-53
2021/03/02 01:11:57;;;;;;;74.10;37.33;;;;;;;;;;2096606;28;20249;-59
2021/03/02 01:12:58;;;;;;;57.17;33.03;;;;;;;;;;2088367;28;20510;-54
2021/03/02 01:13:58;;;;;;;61.80;34.93;;;;;;;;;;2081759;28;20229;-62
2021/03/02 01:14:59;;;;;;;59.53;34.10;;;;;;;;;;2101015;28;20589;-60
2021/03/02 01:15:59;;;;;;;66.70;35.90;;;;;;;;;;2099676;28;20167;-52
2021/03/02 01:17:00;;;;;;;68.37;35.67;;;;;;;;;;2098514;28;20170;-50
2021/03/02 01:18:00;;;;;;;62.30;36.07;;;;;;;;;;2097846;28;20835;-57
2021/03/02 01:19:00;;;;;;;64.07;36.50;;;;;;;;;;2096848;28;20179;-51
2021/03/02 01:20:00;;;;;;;66.53;35.90;;;;;;;;;;2099450;28;20590;-52
2021/03/02 01:21:01;;;;;;;73.03;37.53;;;;;;;;;;2106472;28;20216;-57
2021/03/02 01:22:01;;;;;;;58.93;34.53;;;;;;;;;;2089816;28;20728;-51
2021/03/02 01:23:01;;;;;;;61.13;34.13;;;;;;;;;;2097308;28;20177;-57
2021/03/02 01:24:02;;;;;;;59.30;32.30;;;;;;;;;;2094128;28;20250;-59
2021/03/02 01:25:05;;;;;;;61.93;33.27;;;;;;;;;;2108216;28;20192;-52
2021/03/02 01:26:05;;;;;;;62.10;32.03;;;;;;;;;;2096210;28;20203;-54
2021/03/02 01:27:06;;;;;;;56.63;31.90;;;;;;;;;;2107236;28;20944;-54
2021/03/02 01:28:06;;;;;;;63.70;33.63;;;;;;;;;;2105531;28;20603;-56
2021/03/02 01:29:06;;;;;;;53.03;32.37;;;;;;;;;;2097800;28;20177;-56
2021/03/02 01:30:08;;;;;;;64.23;33.40;;;;;;;;;;2096174;28;20171;-56
2021/03/02 01:31:08;;;;;;;60.83;34.13;;;;;;;;;;2092191;28;20194;-60
2021/03/02 01:32:08;;;;;;;56.47;33.80;;;;;;;;;;2087867;28;20254;-54
2021/03/02 01:33:09;;;;;;;61.83;35.20;;;;;;;;;;2107789;28;20327;-58
2021/03/02 01:34:09;;;;;;;65.20;36.93;;;;;;;;;;2107799;28;20265;-60
2021/03/02 01:35:10;;;;;;;64.27;36.27;;;;;;;;;;2092769;28;20667;-54
2021/03/02 01:36:11;;;;;;;65.40;35.27;;;;;;;;;;2097088;28;20171;-57
2021/03/02 01:37:11;;;;;;;61.47;35.10;;;;;;;;;;2092665;28;20415;-53
2021/03/02 01:38:11;;;;;;;66.07;36.47;;;;;;;;;;2097487;28;20186;-55
2021/03/02 01:39:11;;;;;;;66.20;35.63;;;;;;;;;;2101092;28;20270;-56
2021/03/02 01:40:13;;;;;;;64.67;36.73;;;;;;;;;;2092779;28;20172;-54
2021/03/02 01:41:13;;;;;;;70.77;37.13;;;;;;;;;;2101616;28;20178;-57
2021/03/02 01:42:14;;;;;;;72.30;37.10;;;;;;;;;;2103729;28;20944;-55
2021/03/02 01:43:14;;;;;;;69.60;36.87;;;;;;;;;;2095583;28;20179;-55
2021/03/02 01:44:15;;;;;;;70.63;37.93;;;;;;;;;;2105135;28;20268;-57
2021/03/02 01:45:17;;;;;;;79.33;38.90;;;;;;;;;;2092666;28;20198;-50
2021/03/02 01:46:17;;;;;;;72.20;37.97;;;;;;;;;;2097340;28;20203;-53
2021/03/02 01:47:17;;;;;;;77.43;38.53;;;;;;;;;;2105190;28;20447;-54
2021/03/02 01:48:18;;;;;;;74.90;38.87;;;;;;;;;;2106071;28;20598;-56
2021/03/02 01:49:18;;;;;;;58.67;36.23;;;;;;;;;;2095433;28;20202;-59
2021/03/02 01:50:19;;;;;;;67.17;36.40;;;;;;;;;;2093414;28;20191;-52
2021/03/02 01:51:20;;;;;;;61.53;35.30;;;;;;;;;;2104226;28;20159;-51
2021/03/02 01:52:20;;;;;;;67.40;35.93;;;;;;;;;;2100859;28;20668;-56
2021/03/02 01:53:20;;;;;;;71.53;38.03;;;;;;;;;;2095569;28;20222;-54
2021/03/02 01:54:21;;;;;;;66.47;36.23;;;;;;;;;;2093213;28;20179;-53
2021/03/02 01:55:21;;;;;;;68.57;35.90;;;;;;;;;;2104989;28;20210;-58
2021/03/02 01:56:21;;;;;;;61.33;33.07;;;;;;;;;;2101976;28;20507;-58
2021/03/02 01:57:22;;;;;;;57.30;31.07;;;;;;;;;;2103935;28;20569;-57
2021/03/02 01:58:22;;;;;;;56.40;33.00;;;;;;;;;;2094196;28;20167;-56
2021/03/02 01:59:22;;;;;;;52.87;31.97;;;;;;;;;;2095241;28;20581;-53
2021/03/02 02:00:29;;;;;;;56.73;30.50;;;;;;;;;;2101563;28;20774;-57
2021/03/02 02:01:29;;;;;;;52.47;30.93;;;;;;;;;;2102524;28;20185;-59
2021/03/02 02:02:52;;;;;;;51.03;32.27;;;;;;;;;;2102990;28;20395;-56
2021/03/02 02:03:58;;;;;;;55.57;31.23;;;;;;;;;;2083867;28;20188;-58
2021/03/02 02:04:59;;;;;;;58.47;30.80;;;;;;;;;;2107030;28;20826;-55
2021/03/02 02:06:38;;;;;;;56.33;31.63;;;;;;;;;;2096227;28;20447;-56
2021/03/02 02:07:40;;;;;;;54.23;30.17;;;;;;;;;;2069689;28;20434;-54
2021/03/02 02:08:47;;;;;;;57.73;33.30;;;;;;;;;;2071655;28;20410;-54
2021/03/02 02:09:56;;;;;;;57.83;32.13;;;;;;;;;;2067045;28;20435;-54
2021/03/02 02:11:00;;;;;;;62.90;32.53;;;;;;;;;;2073501;28;20546;-57
2021/03/02 02:12:09;;;;;;;57.27;31.73;;;;;;;;;;2065471;28;20529;-60
2021/03/02 02:13:32;;;;;;;57.10;29.57;;;;;;;;;;2082587;28;20770;-56
2021/03/02 02:14:39;;;;;;;58.80;31.07;;;;;;;;;;2094856;28;20424;-54
2021/03/02 02:15:40;;;;;;;61.47;34.40;;;;;;;;;;2097403;28;20451;-53
2021/03/02 02:16:42;;;;;;;64.27;35.00;;;;;;;;;;2098289;28;20411;-53
2021/03/02 02:17:53;;;;;;;64.07;35.57;;;;;;;;;;2102370;28;20184;-52
2021/03/02 02:18:54;;;;;;;60.40;36.33;;;;;;;;;;2099274;28;20780;-56
2021/03/02 02:19:59;;;;;;;61.67;34.70;;;;;;;;;;2094507;28;20412;-55
2021/03/02 02:21:12;;;;;;;64.80;35.43;;;;;;;;;;2092626;28;20171;-61
2021/03/02 02:22:27;;;;;;;67.23;36.53;;;;;;;;;;2102906;28;20427;-57
2021/03/02 02:23:42;;;;;;;70.60;36.83;;;;;;;;;;2098964;28;20437;-59
2021/03/02 02:24:47;;;;;;;60.83;32.63;;;;;;;;;;2099474;28;20445;-58
2021/03/02 02:25:47;;;;;;;69.07;35.40;;;;;;;;;;2103808;28;20455;-59
2021/03/02 02:26:47;;;;;;;68.73;34.40;;;;;;;;;;2085803;28;20873;-56
2021/03/02 02:27:49;;;;;;;61.87;33.07;;;;;;;;;;2095663;28;20606;-53
2021/03/02 02:28:50;;;;;;;63.63;35.30;;;;;;;;;;2090530;28;20670;-56
2021/03/02 02:29:51;;;;;;;66.07;35.40;;;;;;;;;;2105983;28;20426;-55
2021/03/02 02:31:01;;;;;;;64.17;35.10;;;;;;;;;;2090659;28;20780;-57
2021/03/02 02:32:03;;;;;;;57.57;33.87;;;;;;;;;;2083467;28;20282;-59
2021/03/02 02:33:04;;;;;;;52.03;32.00;;;;;;;;;;2084014;28;20762;-53
2021/03/02 02:34:05;;;;;;;58.23;34.63;;;;;;;;;;2095514;28;20463;-59
2021/03/02 02:35:06;;;;;;;59.33;32.73;;;;;;;;;;2106474;28;20229;-53
2021/03/02 02:36:07;;;;;;;60.10;35.30;;;;;;;;;;2106979;28;20395;-56
2021/03/02 02:37:08;;;;;;;73.77;37.90;;;;;;;;;;2099667;28;20171;-55
2021/03/02 02:38:08;;;;;;;69.27;37.87;;;;;;;;;;2103076;28;20980;-58
2021/03/02 02:39:09;;;;;;;66.70;37.20;;;;;;;;;;2091544;28;20164;-59
2021/03/02 02:40:10;;;;;;;67.30;35.13;;;;;;;;;;2082163;28;20798;-52
2021/03/02 02:41:11;;;;;;;67.13;36.63;;;;;;;;;;2096487;28;20254;-60
2021/03/02 02:42:12;;;;;;;67.30;38.57;;;;;;;;;;2090993;28;20404;-55
2021/03/02 02:43:12;;;;;;;71.23;38.63;;;;;;;;;;2093492;28;20464;-56
2021/03/02 02:44:14;;;;;;;66.10;36.87;;;;;;;;;;2104979;28;20177;-57
2021/03/02 02:45:15;;;;;;;65.60;37.07;;;;;;;;;;2098128;28;20627;-58
2021/03/02 02:46:16;;;;;;;72.63;37.63;;;;;;;;;;2101820;28;20472;-51
2021/03/02 02:47:17;;;;;;;71.73;36.23;;;;;;;;;;2105193;28;20407;-54
2021/03/02 02:48:18;;;;;;;67.60;34.47;;;;;;;;;;2098249;28;20171;-57
2021/03/02 02:49:18;;;;;;;56.60;32.87;;;;;;;;;;2101979;28;20178;-54
2021/03/02 02:50:19;;;;;;;60.97;32.93;;;;;;;;;;2097242;28;20601;-60
2021/03/02 02:51:19;;;;;;;61.20;33.43;;;;;;;;;;2089205;28;20171;-57
2021/03/02 02:52:19;;;;;;;58.93;33.93;;;;;;;;;;2088595;28;20197;-53
2021/03/02 02:53:20;;;;;;;66.30;34.23;;;;;;;;;;2096424;28;20172;-61
2021/03/02 02:54:21;;;;;;;64.57;35.33;;;;;;;;;;2094339;28;20171;-54
2021/03/02 02:55:28;;;;;;;67.33;35.67;;;;;;;;;;2101702;28;20226;-57
2021/03/02 02:56:28;;;;;;;60.13;34.30;;;;;;;;;;2105241;28;20166;-52
2021/03/02 02:57:30;;;;;;;65.27;33.00;;;;;;;;;;2104844;28;20435;-60
2021/03/02 02:58:42;;;;;;;61.13;35.57;;;;;;;;;;2099024;28;20428;-58
2021/03/02 02:59:45;;;;;;;62.63;35.80;;;;;;;;;;2099218;28;20174;-57
2021/03/02 03:00:47;;;;;;;64.10;36.07;;;;;;;;;;2107113;28;20948;-53
2021/03/02 03:01:53;;;;;;;60.97;34.77;;;;;;;;;;2101378;28;20420;-57
2021/03/02 03:02:54;;;;;;;55.10;33.57;;;;;;;;;;2098765;28;20266;-57
2021/03/02 03:03:55;;;;;;;55.50;31.63;;;;;;;;;;2093099;28;20928;-59
2021/03/02 03:05:00;;;;;;;59.20;33.47;;;;;;;;;;2109313;28;20173;-56
2021/03/02 03:06:03;;;;;;;59.33;32.33;;;;;;;;;;2096588;28;20452;-55
2021/03/02 03:07:04;;;;;;;60.13;33.43;;;;;;;;;;2107836;28;20395;-54
2021/03/02 03:08:16;;;;;;;59.90;33.73;;;;;;;;;;2100831;28;20403;-57
2021/03/02 03:09:17;;;;;;;57.30;34.17;;;;;;;;;;2098388;28;20409;-59
2021/03/02 03:10:18;;;;;;;60.13;34.97;;;;;;;;;;2094960;28;20427;-55
2021/03/02 03:11:20;;;;;;;56.80;33.83;;;;;;;;;;2096848;28;20442;-57
2021/03/02 03:12:22;;;;;;;59.97;33.23;;;;;;;;;;2104002;28;20634;-59
2021/03/02 03:13:26;;;;;;;60.47;33.00;;;;;;;;;;2099186;28;20430;-58
2021/03/02 03:14:27;;;;;;;60.90;35.00;;;;;;;;;;2103545;28;20614;-58
2021/03/02 03:15:27;;;;;;;59.33;34.43;;;;;;;;;;2103207;28;20422;-55
2021/03/02 03:16:28;;;;;;;63.50;36.37;;;;;;;;;;2099788;28;20918;-57
2021/03/02 03:17:30;;;;;;;63.30;37.87;;;;;;;;;;2099278;28;20159;-58
2021/03/02 03:18:33;;;;;;;67.77;37.07;;;;;;;;;;2095146;28;20164;-59
2021/03/02 03:19:34;;;;;;;67.20;35.90;;;;;;;;;;2104601;28;20493;-55
2021/03/02 03:20:35;;;;;;;65.30;35.63;;;;;;;;;;2102169;28;20402;-57
2021/03/02 03:21:36;;;;;;;60.53;33.13;;;;;;;;;;2104797;28;20186;-58
2021/03/02 03:22:37;;;;;;;55.07;32.67;;;;;;;;;;2104551;28;20613;-54
2021/03/02 03:23:37;;;;;;;57.83;33.00;;;;;;;;;;2105416;28;20411;-57
2021/03/02 03:24:38;;;;;;;63.67;33.30;;;;;;;;;;2102428;28;20175;-55
2021/03/02 03:25:38;;;;;;;63.33;33.67;;;;;;;;;;2105878;28;20205;-58
2021/03/02 03:26:39;;;;;;;62.50;34.30;;;;;;;;;;2102661;28;20507;-58
2021/03/02 03:27:41;;;;;;;58.47;32.63;;;;;;;;;;2105909;28;20215;-54
2021/03/02 03:28:44;;;;;;;59.40;35.20;;;;;;;;;;2100160;28;20435;-56
2021/03/02 03:29:45;;;;;;;60.30;34.33;;;;;;;;;;2107664;28;20447;-55
2021/03/02 03:30:46;;;;;;;63.87;36.50;;;;;;;;;;2101294;28;21028;-58
2021/03/02 03:31:46;;;;;;;57.20;33.37;;;;;;;;;;2106646;28;20517;-57
2021/03/02 03:32:48;;;;;;;60.63;35.63;;;;;;;;;;2103744;28;20169;-55
2021/03/02 03:33:50;;;;;;;61.73;33.53;;;;;;;;;;2107465;28;20182;-58
2021/03/02 03:34:51;;;;;;;56.43;32.03;;;;;;;;;;2102003;28;20177;-60
2021/03/02 03:35:51;;;;;;;55.80;33.33;;;;;;;;;;2107498;28;20787;-58
2021/03/02 03:36:52;;;;;;;58.83;33.33;;;;;;;;;;2100460;28;20499;-57
2021/03/02 03:37:53;;;;;;;62.67;36.07;;;;;;;;;;2107281;28;20189;-59
2021/03/02 03:38:53;;;;;;;62.60;34.33;;;;;;;;;;2095775;28;20173;-56
2021/03/02 03:39:53;;;;;;;57.00;33.47;;;;;;;;;;2099106;28;20254;-55
2021/03/02 03:40:53;;;;;;;50.43;30.40;;;;;;;;;;2091490;28;20178;-56
2021/03/02 03:41:54;;;;;;;53.83;31.37;;;;;;;;;;2106257;28;20185;-59
2021/03/02 03:42:54;;;;;;;54.57;32.07;;;;;;;;;;2090542;28;20188;-55
2021/03/02 03:43:54;;;;;;;55.80;31.10;;;;;;;;;;2090592;28;20175;-58
2021/03/02 03:44:54;;;;;;;55.70;31.70;;;;;;;;;;2091664;28;20190;-56
2021/03/02 03:45:55;;;;;;;59.37;33.13;;;;;;;;;;2098995;28;20205;-56
2021/03/02 03:46:55;;;;;;;56.37;33.77;;;;;;;;;;2091610;28;20214;-56
2021/03/02 03:47:55;;;;;;;53.17;33.50;;;;;;;;;;2108176;28;20170;-55
2021/03/02 03:48:56;;;;;;;61.17;35.97;;;;;;;;;;2091325;28;20211;-54
2021/03/02 03:49:56;;;;;;;63.67;36.17;;;;;;;;;;2095357;28;20163;-57
2021/03/02 03:50:56;;;;;;;62.90;34.67;;;;;;;;;;2100076;28;20631;-60
2021/03/02 03:51:57;;;;;;;59.43;34.40;;;;;;;;;;2091111;28;20167;-58
2021/03/02 03:53:00;;;;;;;55.87;33.27;;;;;;;;;;2083810;28;20543;-57
2021/03/02 03:54:00;;;;;;;52.37;30.60;;;;;;;;;;2092485;28;20505;-58
2021/03/02 03:55:01;;;;;;;53.50;30.93;;;;;;;;;;2102063;28;20412;-57
2021/03/02 03:56:02;;;;;;;58.30;33.33;;;;;;;;;;2102284;28;20236;-52
2021/03/02 03:57:03;;;;;;;56.63;34.40;;;;;;;;;;2108378;28;20414;-57
2021/03/02 03:58:04;;;;;;;59.33;34.83;;;;;;;;;;2098849;28;20623;-51
2021/03/02 03:59:04;;;;;;;55.53;33.47;;;;;;;;;;2093576;28;20420;-51
2021/03/02 04:00:05;;;;;;;60.40;34.33;;;;;;;;;;2106987;28;20187;-57
2021/03/02 04:01:07;;;;;;;52.17;33.00;;;;;;;;;;2101038;28;20171;-56
2021/03/02 04:02:09;;;;;;;62.10;36.53;;;;;;;;;;2094527;28;20421;-54
2021/03/02 04:03:10;;;;;;;63.13;34.93;;;;;;;;;;2104003;28;20179;-60
2021/03/02 04:04:10;;;;;;;60.20;33.47;;;;;;;;;;2102011;28;20880;-55
2021/03/02 04:05:11;;;;;;;60.77;34.23;;;;;;;;;;2105995;28;20406;-56
2021/03/02 04:06:12;;;;;;;59.43;34.17;;;;;;;;;;2101959;28;20220;-56
2021/03/02 04:07:13;;;;;;;58.20;32.90;;;;;;;;;;2105493;28;20257;-53
2021/03/02 04:08:14;;;;;;;54.87;31.57;;;;;;;;;;2101515;28;20259;-58
2021/03/02 04:09:15;;;;;;;55.70;33.10;;;;;;;;;;2105542;28;20257;-55
2021/03/02 04:10:16;;;;;;;59.83;34.30;;;;;;;;;;2093606;28;20416;-59
2021/03/02 04:11:16;;;;;;;57.13;33.80;;;;;;;;;;2090382;28;20204;-54
2021/03/02 04:12:16;;;;;;;53.50;32.60;;;;;;;;;;2095884;28;20208;-53
2021/03/02 04:13:17;;;;;;;61.40;35.23;;;;;;;;;;2098715;28;20175;-53
2021/03/02 04:14:17;;;;;;;61.63;35.83;;;;;;;;;;2106230;28;20170;-50
2021/03/02 04:15:17;;;;;;;59.27;34.50;;;;;;;;;;2100798;28;20286;-57
2021/03/02 04:16:17;;;;;;;65.43;35.27;;;;;;;;;;2106479;28;20263;-54
2021/03/02 04:17:18;;;;;;;71.20;38.30;;;;;;;;;;2099713;28;20201;-59
2021/03/02 04:18:18;;;;;;;66.80;37.47;;;;;;;;;;2106413;28;20186;-57
2021/03/02 04:19:18;;;;;;;71.70;39.30;;;;;;;;;;2100473;28;20193;-59
2021/03/02 04:20:19;;;;;;;67.10;38.87;;;;;;;;;;2104876;28;20193;-58
2021/03/02 04:21:19;;;;;;;81.47;39.63;;;;;;;;;;2105021;28;20201;-57
2021/03/02 04:22:19;;;;;;;68.90;38.60;;;;;;;;;;2096650;28;20672;-57
2021/03/02 04:23:20;;;;;;;66.83;38.17;;;;;;;;;;2093635;28;20245;-56
2021/03/02 04:24:20;;;;;;;71.47;38.83;;;;;;;;;;2095694;28;20651;-59
2021/03/02 04:25:21;;;;;;;67.20;37.67;;;;;;;;;;2091418;28;20305;-59
2021/03/02 04:26:21;;;;;;;74.70;38.77;;;;;;;;;;2102475;28;20218;-57
2021/03/02 04:27:21;;;;;;;72.63;38.43;;;;;;;;;;2101952;28;20170;-57
2021/03/02 04:28:21;;;;;;;70.87;37.83;;;;;;;;;;2107946;28;20183;-59
2021/03/02 04:29:22;;;;;;;69.43;37.40;;;;;;;;;;2103316;28;20174;-57
2021/03/02 04:30:22;;;;;;;67.87;38.90;;;;;;;;;;2103998;28;20171;-53
2021/03/02 04:31:22;;;;;;;68.10;38.40;;;;;;;;;;2097445;28;20166;-59
2021/03/02 04:32:23;;;;;;;60.80;36.33;;;;;;;;;;2103837;28;20171;-54
2021/03/02 04:33:23;;;;;;;63.80;36.67;;;;;;;;;;2099793;28;20646;-56
2021/03/02 04:34:23;;;;;;;64.37;36.30;;;;;;;;;;2099214;28;20222;-53
2021/03/02 04:35:24;;;;;;;70.33;37.50;;;;;;;;;;2102722;28;20194;-58
2021/03/02 04:36:24;;;;;;;66.90;37.50;;;;;;;;;;2103578;28;20183;-54
2021/03/02 04:37:24;;;;;;;69.93;40.27;;;;;;;;;;2101889;28;20173;-56
2021/03/02 04:38:24;;;;;;;72.53;38.90;;;;;;;;;;2103889;28;20270;-55
2021/03/02 04:39:25;;;;;;;70.00;38.90;;;;;;;;;;2104077;28;20189;-54
2021/03/02 04:40:25;;;;;;;70.47;39.20;;;;;;;;;;2100917;28;20183;-54
2021/03/02 04:41:25;;;;;;;63.03;37.60;;;;;;;;;;2099039;28;20177;-56
2021/03/02 04:42:25;;;;;;;66.13;37.87;;;;;;;;;;2104424;28;20643;-58
2021/03/02 04:43:26;;;;;;;62.67;36.50;;;;;;;;;;2102839;28;20257;-55
2021/03/02 04:44:26;;;;;;;60.90;34.77;;;;;;;;;;2099765;28;20172;-57
2021/03/02 04:45:26;;;;;;;61.87;35.97;;;;;;;;;;2099877;28;20653;-59
2021/03/02 04:46:27;;;;;;;67.50;37.40;;;;;;;;;;2102959;28;20185;-56
2021/03/02 04:47:27;;;;;;;60.43;35.03;;;;;;;;;;2095292;28;20531;-58
2021/03/02 04:48:27;;;;;;;61.83;35.67;;;;;;;;;;2093299;28;20167;-56
2021/03/02 04:49:27;;;;;;;62.83;36.60;;;;;;;;;;2103861;28;20239;-56
2021/03/02 04:50:28;;;;;;;66.33;37.03;;;;;;;;;;2097074;28;20178;-58
2021/03/02 04:51:28;;;;;;;67.33;38.07;;;;;;;;;;2094565;28;20167;-59
2021/03/02 04:52:28;;;;;;;67.70;37.50;;;;;;;;;;2092507;28;20178;-53
2021/03/02 04:53:28;;;;;;;67.17;38.47;;;;;;;;;;2096443;28;20213;-57
2021/03/02 04:54:29;;;;;;;67.50;36.60;;;;;;;;;;2104182;28;20209;-55
2021/03/02 04:55:29;;;;;;;63.93;35.33;;;;;;;;;;2103587;28;20670;-56
2021/03/02 04:57:33;;;;;;;65.43;37.27;;;;;;;;;;2074561;28;20295;-54
2021/03/02 04:58:33;;;;;;;63.37;34.60;;;;;;;;;;2080724;28;20421;-54
2021/03/02 04:59:34;;;;;;;58.67;34.43;;;;;;;;;;2080667;28;20172;-54
2021/03/02 05:00:34;;;;;;;59.87;36.13;;;;;;;;;;2081718;28;20173;-52
2021/03/02 05:01:34;;;;;;;64.87;36.60;;;;;;;;;;2081172;28;20237;-57
2021/03/02 05:02:35;;;;;;;63.00;36.70;;;;;;;;;;2079873;28;20197;-56
2021/03/02 05:03:35;;;;;;;66.23;37.57;;;;;;;;;;2083343;28;20183;-53
2021/03/02 05:04:35;;;;;;;71.83;38.33;;;;;;;;;;2087526;28;20171;-53
2021/03/02 05:05:35;;;;;;;73.63;38.27;;;;;;;;;;2091014;28;20173;-58
2021/03/02 05:06:36;;;;;;;58.47;32.53;;;;;;;;;;2090965;28;20879;-56
2021/03/02 05:07:36;;;;;;;59.40;33.60;;;;;;;;;;2087688;28;20268;-56
2021/03/02 05:08:36;;;;;;;56.03;33.87;;;;;;;;;;2089089;28;20175;-58
2021/03/02 05:09:36;;;;;;;57.53;34.07;;;;;;;;;;2089546;28;20156;-56
2021/03/02 05:10:37;;;;;;;63.40;36.50;;;;;;;;;;2080008;28;20295;-56
2021/03/02 05:11:37;;;;;;;62.27;38.03;;;;;;;;;;2086093;28;20171;-58
2021/03/02 05:12:37;;;;;;;71.00;39.53;;;;;;;;;;2083489;28;20193;-59
2021/03/02 05:13:37;;;;;;;57.10;35.00;;;;;;;;;;2086918;28;20172;-58
2021/03/02 05:14:38;;;;;;;71.27;37.63;;;;;;;;;;2088637;28;20199;-55
2021/03/02 05:15:38;;;;;;;63.50;37.20;;;;;;;;;;2081403;28;20212;-55
2021/03/02 05:16:38;;;;;;;74.13;37.37;;;;;;;;;;2084925;28;20178;-55
2021/03/02 05:17:38;;;;;;;70.03;38.30;;;;;;;;;;2086999;28;20222;-53
2021/03/02 05:18:39;;;;;;;67.67;37.90;;;;;;;;;;2083301;28;20314;-56
2021/03/02 05:19:40;;;;;;;71.67;38.77;;;;;;;;;;2079193;28;20249;-54
2021/03/02 05:20:40;;;;;;;74.20;39.57;;;;;;;;;;2083251;28;20191;-55
2021/03/02 05:21:40;;;;;;;64.27;34.93;;;;;;;;;;2083744;28;20163;-55
2021/03/02 05:22:40;;;;;;;67.03;36.67;;;;;;;;;;2083432;28;20219;-54
2021/03/02 05:23:41;;;;;;;62.70;36.10;;;;;;;;;;2086934;28;20686;-55
2021/03/02 05:24:41;;;;;;;59.87;34.97;;;;;;;;;;2081761;28;20173;-54
2021/03/02 05:25:41;;;;;;;60.97;35.17;;;;;;;;;;2084788;28;20194;-55
2021/03/02 05:26:41;;;;;;;59.93;34.87;;;;;;;;;;2079782;28;20177;-56
2021/03/02 05:27:42;;;;;;;58.60;35.10;;;;;;;;;;2073563;28;20223;-59
2021/03/02 05:28:42;;;;;;;59.50;35.97;;;;;;;;;;2080132;28;20186;-57
2021/03/02 05:29:42;;;;;;;64.63;36.93;;;;;;;;;;2087152;28;20198;-57
2021/03/02 05:30:43;;;;;;;64.87;35.93;;;;;;;;;;2081584;28;20549;-55
2021/03/02 05:31:43;;;;;;;70.47;36.33;;;;;;;;;;2079883;28;20184;-53
2021/03/02 05:32:43;;;;;;;68.30;35.10;;;;;;;;;;2072344;28;20723;-54
2021/03/02 05:33:43;;;;;;;65.27;35.70;;;;;;;;;;2086277;28;20195;-56
2021/03/02 05:34:44;;;;;;;68.43;34.40;;;;;;;;;;2085369;28;20164;-55
2021/03/02 05:35:44;;;;;;;63.83;34.13;;;;;;;;;;2085513;28;20850;-53
2021/03/02 05:36:44;;;;;;;68.37;38.17;;;;;;;;;;2088082;28;20176;-53
2021/03/02 05:37:44;;;;;;;62.00;35.03;;;;;;;;;;2090719;28;20211;-54
2021/03/02 05:38:45;;;;;;;68.17;37.43;;;;;;;;;;2089805;28;20538;-59
2021/03/02 05:39:45;;;;;;;68.33;35.47;;;;;;;;;;2084037;28;20177;-57
2021/03/02 05:40:45;;;;;;;67.40;37.50;;;;;;;;;;2088237;28;20261;-55
2021/03/02 05:41:46;;;;;;;65.57;35.93;;;;;;;;;;2082724;28;20181;-55
2021/03/02 05:42:46;;;;;;;66.97;35.27;;;;;;;;;;2080293;28;20281;-56
2021/03/02 05:43:46;;;;;;;64.97;35.83;;;;;;;;;;2081140;28;20658;-57
2021/03/02 05:44:46;;;;;;;69.50;35.57;;;;;;;;;;2088484;28;20199;-55
2021/03/02 05:45:47;;;;;;;62.93;36.63;;;;;;;;;;2081549;28;20211;-55
2021/03/02 05:46:47;;;;;;;64.00;34.90;;;;;;;;;;2087572;28;20184;-56
2021/03/02 05:47:49;;;;;;;61.53;34.70;;;;;;;;;;2087423;28;20168;-56
2021/03/02 05:48:49;;;;;;;62.83;33.87;;;;;;;;;;2088297;28;20175;-55
2021/03/02 05:49:49;;;;;;;66.47;34.20;;;;;;;;;;2081987;28;20544;-55
2021/03/02 05:50:52;;;;;;;63.00;33.97;;;;;;;;;;2076958;28;20262;-57
2021/03/02 05:51:53;;;;;;;60.67;35.37;;;;;;;;;;2079253;28;20311;-53
2021/03/02 05:52:56;;;;;;;57.07;32.33;;;;;;;;;;2079809;28;20208;-56
2021/03/02 05:53:56;;;;;;;62.03;31.83;;;;;;;;;;2077833;28;20181;-55
2021/03/02 05:55:00;;;;;;;56.27;32.47;;;;;;;;;;2088010;28;20411;-56
2021/03/02 05:56:00;;;;;;;62.73;33.30;;;;;;;;;;2077328;28;20191;-56
2021/03/02 05:57:01;;;;;;;54.03;32.07;;;;;;;;;;2083496;28;20829;-54
2021/03/02 05:58:03;;;;;;;55.90;32.83;;;;;;;;;;2083236;28;20275;-57
2021/03/02 05:59:04;;;;;;;57.73;32.47;;;;;;;;;;2088783;28;20225;-54